Time;durP1;ratioP1;P1;durP2;ratioP2;P2;SDS_P1;SDS_P2;PMS_P1;PMS_P2;Temp;Humidity;BMP_temperature;BMP_pressure;BME280_temperature;BME280_humidity;BME280_pressure;Samples;Min_cycle;Max_cycle;Signal;HPM_P1;HPM_P2
2022/03/03 00:01:36;;;;;;;111.75;46.65;;;1.90;99.90;;;;;;5073043;28;20036;-78
2022/03/03 00:04:02;;;;;;;106.88;46.20;;;1.90;99.90;;;;;;5074225;28;20079;-79
2022/03/03 00:06:28;;;;;;;111.43;47.67;;;1.90;99.90;;;;;;5074424;28;20067;-79
2022/03/03 00:08:54;;;;;;;107.88;47.28;;;1.90;99.90;;;;;;5073851;28;20510;-79
2022/03/03 00:11:19;;;;;;;104.00;46.13;;;2.30;99.90;;;;;;5049920;28;20080;-79
2022/03/03 00:13:45;;;;;;;100.72;45.60;;;1.80;99.90;;;;;;5056786;28;20398;-79
2022/03/03 00:16:10;;;;;;;102.40;46.30;;;1.80;99.90;;;;;;5045188;28;20490;-79
2022/03/03 00:18:36;;;;;;;99.35;45.83;;;1.70;99.90;;;;;;5067047;28;20043;-79
2022/03/03 00:21:02;;;;;;;102.50;46.05;;;1.70;99.90;;;;;;5073877;28;20470;-79
2022/03/03 00:23:27;;;;;;;98.60;45.03;;;1.70;99.90;;;;;;5073671;28;20048;-78
2022/03/03 00:25:53;;;;;;;111.15;49.25;;;1.70;99.90;;;;;;5057059;28;20051;-79
2022/03/03 00:28:18;;;;;;;97.43;45.60;;;1.70;99.90;;;;;;5048677;28;20399;-78
2022/03/03 00:30:44;;;;;;;112.43;51.42;;;1.70;99.90;;;;;;5055947;28;20044;-79
2022/03/03 00:33:10;;;;;;;104.82;47.42;;;1.70;99.90;;;;;;5069157;28;20494;-78
2022/03/03 00:35:36;;;;;;;117.10;48.08;;;1.70;99.90;;;;;;5053870;28;20049;-79
2022/03/03 00:38:02;;;;;;;106.55;47.72;;;1.70;99.90;;;;;;5069428;28;20040;-79
2022/03/03 00:40:27;;;;;;;102.90;47.38;;;1.70;99.90;;;;;;5071346;28;20115;-78
2022/03/03 00:42:53;;;;;;;102.55;43.70;;;1.70;99.90;;;;;;5072495;28;20620;-78
2022/03/03 00:45:19;;;;;;;106.95;44.45;;;1.60;99.90;;;;;;5072571;28;20072;-78
2022/03/03 00:47:44;;;;;;;104.78;47.22;;;1.60;99.90;;;;;;5072713;28;20041;-78
2022/03/03 00:50:10;;;;;;;103.95;44.95;;;1.60;99.90;;;;;;5040747;28;20080;-79
2022/03/03 00:52:36;;;;;;;95.95;45.17;;;1.50;99.90;;;;;;5065142;28;20561;-78
2022/03/03 00:55:02;;;;;;;94.93;42.92;;;1.50;99.90;;;;;;5068545;28;20041;-79
2022/03/03 00:57:27;;;;;;;102.68;44.25;;;1.40;99.90;;;;;;5073704;28;20053;-79
2022/03/03 00:59:53;;;;;;;95.28;41.67;;;1.40;99.90;;;;;;5061419;28;20040;-79
2022/03/03 01:02:19;;;;;;;92.50;42.10;;;1.40;99.90;;;;;;5077998;28;20062;-79
2022/03/03 01:04:44;;;;;;;97.72;44.22;;;1.30;99.90;;;;;;5083309;28;20044;-79
2022/03/03 01:07:10;;;;;;;98.15;43.88;;;1.30;99.90;;;;;;5090175;28;20047;-79
2022/03/03 01:09:35;;;;;;;102.40;43.38;;;1.30;99.90;;;;;;5081694;28;20057;-78
2022/03/03 01:12:01;;;;;;;99.90;43.72;;;1.20;99.90;;;;;;5067417;28;20036;-79
2022/03/03 01:14:27;;;;;;;90.72;42.22;;;1.20;99.90;;;;;;5076485;28;20028;-79
2022/03/03 01:16:52;;;;;;;89.85;41.97;;;1.10;99.90;;;;;;5074633;28;20055;-78
2022/03/03 01:19:19;;;;;;;110.68;44.45;;;1.10;99.90;;;;;;5073605;28;20541;-79
2022/03/03 01:21:45;;;;;;;91.32;42.72;;;1.10;99.90;;;;;;5073169;28;20048;-78
2022/03/03 01:24:11;;;;;;;88.80;43.10;;;1.10;99.90;;;;;;5067125;28;20040;-78
2022/03/03 01:26:37;;;;;;;93.57;43.00;;;1.00;99.90;;;;;;5067849;28;20487;-78
2022/03/03 01:29:03;;;;;;;98.93;44.03;;;1.00;99.90;;;;;;5072836;28;20039;-78
2022/03/03 01:31:29;;;;;;;95.15;42.17;;;1.00;99.90;;;;;;5072949;28;20048;-78
2022/03/03 01:33:54;;;;;;;93.80;40.97;;;1.00;99.90;;;;;;5066628;28;20033;-78
2022/03/03 01:36:20;;;;;;;88.03;41.10;;;1.00;99.90;;;;;;5045327;28;20075;-78
2022/03/03 01:38:46;;;;;;;102.32;43.55;;;0.90;99.90;;;;;;5072376;28;20503;-78
2022/03/03 01:41:11;;;;;;;100.03;45.17;;;0.90;99.90;;;;;;5054520;28;20479;-78
2022/03/03 01:43:38;;;;;;;93.97;43.85;;;0.90;99.90;;;;;;5071640;28;20497;-78
2022/03/03 01:46:04;;;;;;;99.72;43.55;;;0.90;99.90;;;;;;5067384;28;20048;-79
2022/03/03 01:48:30;;;;;;;91.60;41.47;;;0.90;99.90;;;;;;5053860;28;20048;-79
2022/03/03 01:50:56;;;;;;;99.57;45.63;;;0.90;99.90;;;;;;5073475;28;20041;-78
2022/03/03 01:53:22;;;;;;;91.13;41.78;;;0.90;99.90;;;;;;5072201;28;20041;-79
2022/03/03 01:55:50;;;;;;;95.28;43.00;;;2.40;99.90;;;;;;5072366;28;20044;-79
2022/03/03 01:58:16;;;;;;;88.15;41.05;;;0.80;99.90;;;;;;5072468;28;20045;-79
2022/03/03 02:00:43;;;;;;;87.82;40.95;;;0.80;99.90;;;;;;5055549;28;20063;-79
2022/03/03 02:03:10;;;;;;;100.35;43.75;;;0.70;99.90;;;;;;5073002;28;20067;-78
2022/03/03 02:05:36;;;;;;;89.07;40.72;;;0.80;99.90;;;;;;5053187;28;20046;-78
2022/03/03 02:08:02;;;;;;;91.70;42.38;;;0.70;99.90;;;;;;5060184;28;20072;-78
2022/03/03 02:10:28;;;;;;;93.65;42.85;;;0.70;99.90;;;;;;5072904;28;20036;-78
2022/03/03 02:12:53;;;;;;;90.80;40.97;;;0.70;99.90;;;;;;5070930;28;20103;-79
2022/03/03 02:15:20;;;;;;;86.53;39.25;;;1.80;99.90;;;;;;5064194;28;20050;-78
2022/03/03 02:17:46;;;;;;;97.68;42.33;;;0.60;99.90;;;;;;5071627;28;20043;-78
2022/03/03 02:20:23;;;;;;;95.25;42.50;;;0.60;99.90;;;;;;5072675;28;20068;-78
2022/03/03 02:22:50;;;;;;;91.07;41.00;;;0.50;99.90;;;;;;5065440;28;20398;-78
2022/03/03 02:25:16;;;;;;;89.70;39.53;;;0.50;99.90;;;;;;5038605;28;20051;-79
2022/03/03 02:27:43;;;;;;;93.03;41.30;;;0.40;99.90;;;;;;5072746;28;20144;-79
2022/03/03 02:30:10;;;;;;;92.72;43.90;;;0.40;99.90;;;;;;5073151;28;20055;-78
2022/03/03 02:32:36;;;;;;;90.57;43.28;;;0.40;99.90;;;;;;5037474;28;20403;-78
2022/03/03 02:35:01;;;;;;;97.22;42.97;;;0.40;99.90;;;;;;5076596;28;20036;-79
2022/03/03 02:37:35;;;;;;;89.10;42.22;;;0.40;99.90;;;;;;5052774;28;20606;-79
2022/03/03 02:40:02;;;;;;;95.18;42.70;;;0.30;99.90;;;;;;5063128;28;20045;-78
2022/03/03 02:42:28;;;;;;;99.80;43.10;;;1.60;99.90;;;;;;5072368;28;20094;-78
2022/03/03 02:44:53;;;;;;;92.13;40.47;;;0.40;99.90;;;;;;5074757;28;20430;-79
2022/03/03 02:47:19;;;;;;;97.13;43.08;;;0.30;99.90;;;;;;5073890;28;20561;-79
2022/03/03 02:49:45;;;;;;;102.63;43.70;;;0.30;99.90;;;;;;5072913;28;20036;-79
2022/03/03 02:52:10;;;;;;;95.88;42.38;;;0.30;99.90;;;;;;5076365;28;20033;-79
2022/03/03 02:54:36;;;;;;;82.93;39.53;;;0.30;99.90;;;;;;5076447;28;20040;-79
2022/03/03 02:59:46;;;;;;;85.82;40.63;;;0.20;99.90;;;;;;5074005;28;20040;-79
2022/03/03 03:02:14;;;;;;;89.40;41.20;;;0.20;99.90;;;;;;5074002;28;20072;-79
2022/03/03 03:04:39;;;;;;;87.33;40.37;;;0.20;99.90;;;;;;5074862;28;20044;-79
2022/03/03 03:07:05;;;;;;;96.35;42.60;;;0.20;99.90;;;;;;5049311;28;20045;-78
2022/03/03 03:09:30;;;;;;;88.90;41.47;;;0.20;99.90;;;;;;5075274;28;20414;-78
2022/03/03 03:11:56;;;;;;;99.30;42.25;;;0.10;99.90;;;;;;5073485;28;20470;-79
2022/03/03 03:14:22;;;;;;;84.70;40.28;;;0.20;99.90;;;;;;5072767;28;20431;-78
2022/03/03 03:16:47;;;;;;;94.57;40.17;;;0.10;99.90;;;;;;5057221;28;20037;-78
2022/03/03 03:19:13;;;;;;;90.47;41.97;;;0.10;99.90;;;;;;5075182;28;20106;-78
2022/03/03 03:21:39;;;;;;;83.63;39.13;;;0.20;99.90;;;;;;5074521;28;20040;-78
2022/03/03 03:24:05;;;;;;;85.40;41.25;;;0.20;99.90;;;;;;5075512;28;20115;-78
2022/03/03 03:26:30;;;;;;;89.90;41.80;;;0.20;99.90;;;;;;5071457;28;20059;-78
2022/03/03 03:28:56;;;;;;;85.63;40.17;;;0.20;99.90;;;;;;5063181;28;20491;-78
2022/03/03 03:31:21;;;;;;;90.15;40.72;;;0.10;99.90;;;;;;5075048;28;20072;-78
2022/03/03 03:33:47;;;;;;;87.28;39.60;;;0.10;99.90;;;;;;5039324;28;20049;-78
2022/03/03 03:36:13;;;;;;;84.75;40.08;;;0.10;99.90;;;;;;5075009;28;20116;-77
2022/03/03 03:38:39;;;;;;;86.55;39.08;;;0.10;99.90;;;;;;5059088;28;20454;-77
2022/03/03 03:41:05;;;;;;;99.10;42.80;;;0.20;99.90;;;;;;5069019;28;20546;-79
2022/03/03 03:43:31;;;;;;;92.95;42.53;;;0.10;99.90;;;;;;5075003;28;20083;-78
2022/03/03 03:45:57;;;;;;;90.57;40.55;;;0.20;99.90;;;;;;5074148;28;20037;-79
2022/03/03 03:48:23;;;;;;;83.78;41.15;;;0.20;99.90;;;;;;5057441;28;20055;-78
2022/03/03 03:50:49;;;;;;;94.63;41.92;;;0.20;99.90;;;;;;5073785;28;20051;-78
2022/03/03 03:53:15;;;;;;;90.22;41.00;;;0.20;99.90;;;;;;5070614;28;20120;-79
2022/03/03 03:55:40;;;;;;;91.72;40.08;;;0.20;99.90;;;;;;5074966;28;20116;-79
2022/03/03 03:58:06;;;;;;;83.80;39.22;;;0.30;99.90;;;;;;5075029;28;20044;-78
2022/03/03 04:00:32;;;;;;;88.53;41.95;;;0.20;99.90;;;;;;5074942;28;20037;-78
2022/03/03 04:02:58;;;;;;;90.55;42.08;;;0.20;99.90;;;;;;5079565;28;20029;-79
2022/03/03 04:05:23;;;;;;;84.75;41.30;;;1.70;99.90;;;;;;5078816;28;20483;-78
2022/03/03 04:07:50;;;;;;;84.10;40.15;;;0.20;99.90;;;;;;5076024;28;20083;-79
2022/03/03 04:10:16;;;;;;;83.22;41.65;;;0.20;99.90;;;;;;5073141;28;20045;-80
2022/03/03 04:12:42;;;;;;;77.13;37.17;;;0.30;99.90;;;;;;5075243;28;20066;-79
2022/03/03 04:15:09;;;;;;;74.40;37.10;;;0.40;99.90;;;;;;5073771;28;20042;-79
2022/03/03 04:17:35;;;;;;;68.53;32.78;;;0.40;99.90;;;;;;5074370;28;20037;-79
2022/03/03 04:20:02;;;;;;;68.32;33.63;;;0.50;99.90;;;;;;5070896;28;20037;-79
2022/03/03 04:22:27;;;;;;;63.15;32.85;;;0.60;99.90;;;;;;5056506;28;20112;-79
2022/03/03 04:24:53;;;;;;;67.78;35.25;;;0.70;99.90;;;;;;5057641;28;20080;-79
2022/03/03 04:27:18;;;;;;;67.63;32.50;;;0.80;99.90;;;;;;5070747;28;20534;-79
2022/03/03 04:29:44;;;;;;;66.57;32.60;;;0.80;99.90;;;;;;5074043;28;20085;-79
2022/03/03 04:32:11;;;;;;;67.82;34.97;;;0.90;99.90;;;;;;5057048;28;20395;-80
2022/03/03 04:34:36;;;;;;;63.92;33.33;;;0.90;99.90;;;;;;5055882;28;20049;-79
2022/03/03 04:37:02;;;;;;;65.20;31.85;;;0.90;99.90;;;;;;5072315;28;20048;-79
2022/03/03 04:39:28;;;;;;;68.53;32.38;;;0.90;99.90;;;;;;5075427;28;20103;-79
2022/03/03 04:41:54;;;;;;;67.07;32.38;;;0.90;99.90;;;;;;5073774;28;20033;-79
2022/03/03 04:44:19;;;;;;;63.92;32.13;;;0.90;99.90;;;;;;5072340;28;20037;-78
2022/03/03 04:46:45;;;;;;;74.68;36.92;;;0.80;99.90;;;;;;5058706;28;20049;-79
2022/03/03 04:49:11;;;;;;;74.93;38.05;;;0.80;99.90;;;;;;5054739;28;20449;-78
2022/03/03 04:51:39;;;;;;;71.68;32.90;;;0.70;99.90;;;;;;5073744;28;20423;-79
2022/03/03 04:54:07;;;;;;;66.95;34.85;;;0.70;99.90;;;;;;5052966;28;20041;-79
2022/03/03 04:56:33;;;;;;;70.25;34.38;;;0.70;99.90;;;;;;5073659;28;20095;-78
2022/03/03 04:58:59;;;;;;;66.28;32.05;;;0.60;99.90;;;;;;5047294;28;20056;-79
2022/03/03 05:01:25;;;;;;;73.70;35.28;;;0.60;99.90;;;;;;5074254;28;20041;-78
2022/03/03 05:03:50;;;;;;;70.00;35.20;;;0.60;99.90;;;;;;5064565;28;20099;-78
2022/03/03 05:06:17;;;;;;;67.45;33.65;;;0.50;99.90;;;;;;5077298;28;20112;-79
2022/03/03 05:08:43;;;;;;;67.03;34.78;;;0.50;99.90;;;;;;5070905;28;20059;-79
2022/03/03 05:11:09;;;;;;;73.13;34.47;;;0.50;99.90;;;;;;5077797;28;20044;-79
2022/03/03 05:13:36;;;;;;;70.00;34.58;;;0.50;99.90;;;;;;5076692;28;20041;-80
2022/03/03 05:16:03;;;;;;;70.00;37.85;;;0.40;99.90;;;;;;5065055;28;20448;-79
2022/03/03 05:18:29;;;;;;;71.78;35.38;;;0.40;99.90;;;;;;5075658;28;20040;-78
2022/03/03 05:20:55;;;;;;;73.07;38.25;;;0.30;99.90;;;;;;5076317;28;20106;-78
2022/03/03 05:23:21;;;;;;;69.38;35.22;;;0.40;99.90;;;;;;5072385;28;20044;-80
2022/03/03 05:25:47;;;;;;;69.43;34.78;;;0.30;99.90;;;;;;5076246;28;20036;-78
2022/03/03 05:28:13;;;;;;;71.50;34.83;;;1.20;99.90;;;;;;5074743;28;20384;-78
2022/03/03 05:30:39;;;;;;;70.90;36.35;;;0.30;99.90;;;;;;5082634;28;20495;-78
2022/03/03 05:33:04;;;;;;;70.88;36.72;;;0.20;99.90;;;;;;5076044;28;20399;-79
2022/03/03 05:35:30;;;;;;;76.10;35.90;;;0.20;99.90;;;;;;5087508;28;20096;-79
2022/03/03 05:37:56;;;;;;;74.20;34.22;;;0.20;99.90;;;;;;5081982;28;20037;-78
2022/03/03 05:40:21;;;;;;;72.90;34.83;;;0.10;99.90;;;;;;5083471;28;20043;-78
2022/03/03 05:42:47;;;;;;;71.10;34.35;;;0.10;99.90;;;;;;5077118;28;20044;-78
2022/03/03 05:45:14;;;;;;;74.78;35.65;;;0.20;99.90;;;;;;5073632;28;20040;-81
2022/03/03 05:47:40;;;;;;;70.70;35.55;;;0.10;99.90;;;;;;5061780;28;20483;-78
2022/03/03 05:50:06;;;;;;;71.47;34.35;;;0.10;99.90;;;;;;5080073;28;20033;-77
2022/03/03 05:52:32;;;;;;;69.47;33.97;;;0.10;99.90;;;;;;5065554;28;20041;-78
2022/03/03 05:55:01;;;;;;;70.90;36.53;;;0.10;99.90;;;;;;5066047;28;20103;-78
2022/03/03 05:57:39;;;;;;;69.57;34.65;;;0.10;99.90;;;;;;5051903;28;20040;-78
2022/03/03 06:00:13;;;;;;;74.05;36.38;;;0.10;99.90;;;;;;5068209;28;20044;-79
2022/03/03 06:02:53;;;;;;;70.05;35.58;;;0.10;99.90;;;;;;5052413;28;20040;-78
2022/03/03 06:05:23;;;;;;;71.45;35.40;;;0.00;99.90;;;;;;5050251;28;20083;-80
2022/03/03 06:07:52;;;;;;;74.45;34.00;;;0.00;99.90;;;;;;5061048;28;20127;-80
2022/03/03 06:10:24;;;;;;;66.50;34.67;;;0.00;99.90;;;;;;5062166;28;20461;-80
2022/03/03 06:13:11;;;;;;;74.63;34.78;;;-0.10;99.90;;;;;;5072252;28;20043;-80
2022/03/03 06:15:37;;;;;;;68.07;34.22;;;-0.10;99.90;;;;;;5056655;28;20465;-80
2022/03/03 06:18:03;;;;;;;65.38;33.95;;;0.00;99.90;;;;;;5058449;28;20064;-79
2022/03/03 06:20:31;;;;;;;71.88;35.67;;;0.80;99.90;;;;;;5073635;28;20068;-80
2022/03/03 06:22:56;;;;;;;73.57;33.70;;;0.00;99.90;;;;;;5059555;28;20067;-80
2022/03/03 06:25:22;;;;;;;75.97;36.17;;;0.00;99.90;;;;;;5059772;28;20081;-80
2022/03/03 06:27:48;;;;;;;69.10;35.83;;;0.00;99.90;;;;;;5060962;28;20048;-80
2022/03/03 06:30:14;;;;;;;76.57;36.47;;;0.00;99.90;;;;;;5076622;28;20040;-80
2022/03/03 06:32:40;;;;;;;71.85;36.35;;;0.00;99.90;;;;;;5077900;28;20098;-80
2022/03/03 06:35:05;;;;;;;74.95;37.63;;;0.00;99.90;;;;;;5072069;28;20483;-78
2022/03/03 06:37:32;;;;;;;76.15;37.72;;;0.00;99.90;;;;;;5078235;28;20036;-78
2022/03/03 06:39:57;;;;;;;72.45;37.45;;;0.10;99.90;;;;;;5040254;28;20148;-78
2022/03/03 06:42:23;;;;;;;71.90;36.75;;;0.00;99.90;;;;;;5074611;28;20045;-78
2022/03/03 06:44:50;;;;;;;77.20;36.63;;;0.00;99.90;;;;;;5074378;28;20056;-77
2022/03/03 06:47:16;;;;;;;75.43;36.95;;;0.00;99.90;;;;;;5075262;28;20072;-77
2022/03/03 06:49:42;;;;;;;81.57;39.13;;;0.00;99.90;;;;;;5074413;28;20048;-78
2022/03/03 06:52:13;;;;;;;80.63;38.63;;;0.00;99.90;;;;;;5059388;28;20066;-77
2022/03/03 06:54:42;;;;;;;73.70;37.33;;;0.00;99.90;;;;;;5072090;28;20049;-77
2022/03/03 06:57:09;;;;;;;81.50;37.95;;;0.00;99.90;;;;;;5077414;28;20045;-76
2022/03/03 06:59:38;;;;;;;79.05;37.40;;;0.10;99.90;;;;;;5067160;28;20070;-77
2022/03/03 07:02:04;;;;;;;80.70;38.90;;;0.10;99.90;;;;;;5088145;28;20036;-77
2022/03/03 07:04:33;;;;;;;77.10;37.75;;;1.10;99.90;;;;;;5083878;28;20070;-77
2022/03/03 07:07:00;;;;;;;76.32;37.53;;;0.20;99.90;;;;;;5085807;28;20049;-78
2022/03/03 07:09:25;;;;;;;79.15;40.70;;;0.20;99.90;;;;;;5063099;28;20052;-78
2022/03/03 07:11:51;;;;;;;76.13;40.40;;;0.20;99.90;;;;;;5077219;28;20108;-79
2022/03/03 07:14:18;;;;;;;78.57;41.83;;;0.30;99.90;;;;;;5082754;28;20175;-79
2022/03/03 07:16:47;;;;;;;75.72;36.33;;;0.30;99.90;;;;;;5087638;28;20493;-78
2022/03/03 07:19:36;;;;;;;78.18;40.15;;;0.40;99.90;;;;;;5083338;28;20096;-78
2022/03/03 07:22:23;;;;;;;83.85;40.47;;;0.50;99.90;;;;;;5082745;28;20045;-78
2022/03/03 07:24:52;;;;;;;84.53;41.75;;;0.50;99.90;;;;;;5076404;28;20040;-79
2022/03/03 07:27:21;;;;;;;77.10;35.53;;;0.60;99.90;;;;;;5083446;28;20044;-79
2022/03/03 07:30:06;;;;;;;81.53;36.83;;;0.60;99.90;;;;;;5069119;28;20072;-79
2022/03/03 07:32:33;;;;;;;85.68;41.85;;;0.70;99.90;;;;;;5091334;28;20096;-77
2022/03/03 07:35:05;;;;;;;80.88;40.00;;;0.80;99.90;;;;;;5075402;28;20061;-79
2022/03/03 07:37:36;;;;;;;76.35;37.88;;;0.80;99.90;;;;;;5086679;28;20068;-79
2022/03/03 07:40:08;;;;;;;70.47;35.92;;;0.90;99.90;;;;;;5089391;28;20066;-79
2022/03/03 07:42:35;;;;;;;76.13;36.97;;;0.90;99.90;;;;;;5080237;28;20040;-79
2022/03/03 07:45:03;;;;;;;78.13;38.42;;;1.00;99.90;;;;;;5075967;28;20068;-79
2022/03/03 07:47:29;;;;;;;73.63;35.10;;;1.10;99.90;;;;;;5073576;28;20048;-77
2022/03/03 07:49:56;;;;;;;71.95;36.30;;;1.30;99.90;;;;;;5082551;28;20044;-77
2022/03/03 07:52:23;;;;;;;67.10;33.88;;;1.50;99.90;;;;;;5074457;28;20072;-78
2022/03/03 07:54:48;;;;;;;67.25;33.03;;;2.00;99.90;;;;;;5073821;28;20040;-78
2022/03/03 07:57:16;;;;;;;66.45;35.75;;;2.20;99.90;;;;;;5074623;28;20051;-77
2022/03/03 07:59:47;;;;;;;67.78;34.58;;;2.20;99.90;;;;;;5072641;28;20150;-77
2022/03/03 08:02:22;;;;;;;64.57;33.08;;;2.20;99.90;;;;;;5074548;28;20048;-78
2022/03/03 08:04:52;;;;;;;61.42;33.13;;;2.40;99.90;;;;;;5075907;28;20364;-77
2022/03/03 08:07:20;;;;;;;61.20;31.08;;;2.50;99.90;;;;;;5064268;28;20093;-78
2022/03/03 08:09:55;;;;;;;60.92;31.25;;;2.50;99.90;;;;;;5068320;28;20041;-77
2022/03/03 08:12:22;;;;;;;60.85;30.45;;;2.50;99.90;;;;;;5089103;28;20077;-78
2022/03/03 08:14:49;;;;;;;58.25;30.25;;;2.50;99.90;;;;;;5075541;28;20072;-77
2022/03/03 08:17:15;;;;;;;63.70;32.63;;;2.50;99.90;;;;;;5091043;28;20640;-77
2022/03/03 08:19:43;;;;;;;60.70;32.80;;;2.50;99.90;;;;;;5083016;28;20048;-77
2022/03/03 08:22:09;;;;;;;55.78;31.30;;;2.50;99.90;;;;;;5081917;28;20055;-78
2022/03/03 08:24:35;;;;;;;65.70;32.25;;;2.50;99.90;;;;;;5064449;28;20041;-77
2022/03/03 08:27:03;;;;;;;61.20;32.17;;;2.60;99.90;;;;;;5079637;28;20036;-78
2022/03/03 08:29:28;;;;;;;58.20;31.25;;;2.70;99.90;;;;;;5048240;28;20076;-78
2022/03/03 08:31:56;;;;;;;60.50;31.27;;;2.80;99.90;;;;;;5089823;28;20050;-77
2022/03/03 08:34:43;;;;;;;58.50;32.00;;;2.90;99.90;;;;;;5092906;28;20072;-78
2022/03/03 08:37:18;;;;;;;60.85;31.42;;;3.10;99.90;;;;;;5081883;28;20120;-78
2022/03/03 08:39:46;;;;;;;59.63;31.10;;;3.10;99.90;;;;;;5082429;28;20410;-78
2022/03/03 08:42:15;;;;;;;62.00;31.25;;;3.10;99.90;;;;;;5082804;28;20052;-78
2022/03/03 08:44:43;;;;;;;56.85;30.95;;;3.20;99.90;;;;;;5064719;28;20044;-78
2022/03/03 08:47:11;;;;;;;57.42;31.00;;;3.20;99.90;;;;;;5078015;28;20053;-78
2022/03/03 08:49:39;;;;;;;60.63;31.35;;;3.30;99.90;;;;;;5079190;28;20070;-79
2022/03/03 08:52:07;;;;;;;57.38;30.70;;;3.40;99.90;;;;;;5060877;28;20052;-77
2022/03/03 08:54:33;;;;;;;58.83;29.63;;;3.70;99.90;;;;;;5037986;28;21080;-77
2022/03/03 08:57:01;;;;;;;57.15;31.13;;;3.60;99.90;;;;;;5071842;28;20083;-77
2022/03/03 08:59:27;;;;;;;62.57;32.17;;;3.70;99.90;;;;;;5077475;28;20125;-77
2022/03/03 09:01:53;;;;;;;54.15;28.42;;;3.90;99.90;;;;;;5059743;28;20076;-77
2022/03/03 09:04:20;;;;;;;54.05;28.65;;;4.00;99.90;;;;;;5050745;28;20059;-77
2022/03/03 09:06:45;;;;;;;54.95;29.15;;;4.10;99.90;;;;;;5057096;28;20094;-77
2022/03/03 09:09:11;;;;;;;52.08;29.70;;;4.30;99.90;;;;;;5066628;28;20052;-77
2022/03/03 09:11:38;;;;;;;58.30;30.58;;;4.50;99.90;;;;;;5057958;28;20045;-77
2022/03/03 09:14:05;;;;;;;55.90;29.83;;;4.50;99.90;;;;;;5073436;28;20379;-77
2022/03/03 09:16:30;;;;;;;54.88;31.10;;;4.70;99.90;;;;;;5077351;28;20044;-78
2022/03/03 09:18:56;;;;;;;57.47;30.05;;;4.90;99.90;;;;;;5082429;28;20040;-77
2022/03/03 09:21:22;;;;;;;52.67;30.30;;;5.10;99.90;;;;;;5080911;28;20050;-77
2022/03/03 09:23:47;;;;;;;50.10;28.38;;;5.30;99.90;;;;;;5058180;28;20044;-77
2022/03/03 09:26:13;;;;;;;50.10;27.77;;;5.40;99.90;;;;;;5022954;28;20045;-77
2022/03/03 09:28:39;;;;;;;51.78;27.58;;;5.50;99.90;;;;;;5064941;28;20082;-78
2022/03/03 09:31:05;;;;;;;48.40;27.65;;;5.60;99.90;;;;;;5041856;28;20082;-78
2022/03/03 09:33:31;;;;;;;49.60;27.85;;;6.60;99.90;;;;;;5056805;28;20616;-78
2022/03/03 09:35:56;;;;;;;50.20;27.75;;;5.80;99.90;;;;;;5115746;22;20490;-66
2022/03/03 09:38:22;;;;;;;45.83;26.60;;;5.80;99.90;;;;;;5054473;28;20049;-66
2022/03/03 09:40:48;;;;;;;45.75;26.45;;;6.00;99.90;;;;;;5069475;28;20127;-66
2022/03/03 09:43:15;;;;;;;44.33;26.40;;;6.10;99.90;;;;;;5064335;28;20518;-66
2022/03/03 09:45:40;;;;;;;45.33;25.77;;;6.30;99.90;;;;;;5066683;28;20043;-66
2022/03/03 09:48:09;;;;;;;46.15;25.38;;;6.40;99.90;;;;;;5036699;28;20053;-66
2022/03/03 09:50:37;;;;;;;42.42;24.95;;;6.70;99.90;;;;;;5034842;28;20452;-66
2022/03/03 09:53:12;;;;;;;39.38;22.77;;;7.00;99.90;;;;;;5042700;28;20116;-66
2022/03/03 09:55:41;;;;;;;38.90;23.88;;;7.20;99.90;;;;;;5068611;28;20056;-67
2022/03/03 09:58:07;;;;;;;37.42;23.00;;;7.60;99.90;;;;;;5052359;28;20386;-65
2022/03/03 10:00:37;;;;;;;41.83;23.17;;;8.00;99.90;;;;;;5034675;28;20049;-65
2022/03/03 10:03:14;;;;;;;37.05;22.80;;;8.40;99.90;;;;;;5052184;28;20045;-65
2022/03/03 10:05:49;;;;;;;37.88;22.75;;;8.70;99.90;;;;;;5052504;28;20041;-65
2022/03/03 10:08:19;;;;;;;36.38;21.85;;;9.00;99.90;;;;;;5018170;28;20091;-65
2022/03/03 10:10:52;;;;;;;36.35;21.27;;;9.40;99.90;;;;;;5043853;28;20394;-65
2022/03/03 10:13:18;;;;;;;37.58;19.77;;;9.70;99.50;;;;;;5052261;28;20466;-66
2022/03/03 10:15:51;;;;;;;36.90;21.02;;;9.90;99.90;;;;;;5034275;28;20041;-66
2022/03/03 10:18:18;;;;;;;34.17;20.55;;;9.90;98.20;;;;;;5051860;28;20044;-65
2022/03/03 10:20:56;;;;;;;33.30;19.85;;;10.20;99.90;;;;;;5052239;28;20048;-67
2022/03/03 10:23:29;;;;;;;32.55;20.48;;;10.50;99.30;;;;;;5051950;28;20082;-67
2022/03/03 10:25:56;;;;;;;30.20;20.20;;;10.60;95.00;;;;;;5071960;28;20080;-67
2022/03/03 10:28:35;;;;;;;27.13;17.60;;;11.10;98.50;;;;;;5052257;28;20128;-67
2022/03/03 10:31:16;;;;;;;31.20;17.08;;;11.40;94.50;;;;;;5034742;28;20128;-67
2022/03/03 10:33:47;;;;;;;24.90;17.00;;;11.40;88.40;;;;;;5045436;28;20055;-66
2022/03/03 10:36:21;;;;;;;25.60;18.15;;;11.40;91.30;;;;;;5069019;28;20445;-66
2022/03/03 10:38:47;;;;;;;27.17;17.60;;;11.50;89.70;;;;;;5071756;28;20040;-67
2022/03/03 10:41:28;;;;;;;25.70;17.33;;;11.70;91.90;;;;;;5045596;28;20084;-66
2022/03/03 10:43:53;;;;;;;28.38;18.05;;;11.80;86.80;;;;;;5040236;28;20045;-66
2022/03/03 10:46:19;;;;;;;23.85;17.00;;;11.70;90.30;;;;;;5051836;28;20033;-66
2022/03/03 10:48:45;;;;;;;26.83;17.95;;;11.90;90.50;;;;;;5052258;28;20534;-66
2022/03/03 10:51:14;;;;;;;24.95;17.33;;;11.70;78.30;;;;;;5052465;28;20490;-66
2022/03/03 10:53:42;;;;;;;23.23;16.60;;;11.60;81.00;;;;;;5048828;28;20045;-67
2022/03/03 10:56:19;;;;;;;23.33;16.65;;;11.80;83.00;;;;;;5053617;28;20084;-67
2022/03/03 10:58:54;;;;;;;22.48;16.52;;;11.70;77.80;;;;;;5037681;28;20060;-67
2022/03/03 11:01:27;;;;;;;24.15;16.27;;;11.70;75.10;;;;;;5055633;28;20489;-66
2022/03/03 11:03:54;;;;;;;25.38;17.45;;;11.70;77.90;;;;;;5037103;28;20087;-66
2022/03/03 11:06:24;;;;;;;23.02;16.55;;;11.80;75.90;;;;;;5018536;28;20395;-66
2022/03/03 11:08:52;;;;;;;26.05;15.70;;;11.70;75.70;;;;;;5042462;28;20037;-66
2022/03/03 11:11:20;;;;;;;22.33;15.43;;;11.60;74.00;;;;;;5047951;28;20510;-66
2022/03/03 11:13:49;;;;;;;22.10;16.40;;;11.60;74.30;;;;;;5034081;28;20409;-66
2022/03/03 11:16:22;;;;;;;23.67;17.67;;;11.70;77.20;;;;;;5020602;28;20049;-66
2022/03/03 11:18:48;;;;;;;32.50;19.45;;;11.50;75.50;;;;;;5051740;28;20053;-66
2022/03/03 11:21:15;;;;;;;26.85;18.92;;;11.60;79.60;;;;;;5019374;28;20053;-67
2022/03/03 11:23:44;;;;;;;23.42;17.73;;;11.40;78.80;;;;;;5035574;28;20120;-67
2022/03/03 11:26:23;;;;;;;27.35;17.58;;;11.70;77.40;;;;;;5032561;28;20040;-67
2022/03/03 11:28:59;;;;;;;22.58;17.23;;;11.70;75.60;;;;;;5048159;28;20512;-67
2022/03/03 11:31:30;;;;;;;26.48;18.45;;;11.60;74.90;;;;;;5051860;28;20045;-68
2022/03/03 11:34:33;;;;;;;25.80;18.30;;;12.70;76.50;;;;;;5051383;28;20048;-67
2022/03/03 11:37:00;;;;;;;26.02;19.20;;;11.50;77.20;;;;;;5033006;28;20056;-67
2022/03/03 11:39:59;;;;;;;30.08;20.13;;;11.90;79.00;;;;;;5051428;28;20136;-67
2022/03/03 11:42:31;;;;;;;30.20;19.77;;;12.20;80.30;;;;;;5037633;28;20415;-67
2022/03/03 11:45:34;;;;;;;27.40;19.98;;;12.00;79.40;;;;;;5014154;28;20053;-66
2022/03/03 11:48:20;;;;;;;28.35;20.13;;;12.10;80.10;;;;;;5028907;28;20544;-67
2022/03/03 11:50:47;;;;;;;27.98;19.50;;;12.10;80.40;;;;;;5013585;28;20396;-67
2022/03/03 11:53:20;;;;;;;29.60;20.67;;;12.10;81.90;;;;;;5031358;28;20454;-67
2022/03/03 11:55:55;;;;;;;31.42;21.13;;;11.80;80.70;;;;;;5046176;28;20064;-67
2022/03/03 11:58:31;;;;;;;27.73;19.45;;;11.30;81.80;;;;;;5016671;28;20048;-67
2022/03/03 12:01:05;;;;;;;26.95;19.08;;;11.20;82.20;;;;;;5031089;28;20041;-66
2022/03/03 12:03:32;;;;;;;26.08;18.80;;;11.40;80.60;;;;;;5038804;28;20491;-67
2022/03/03 12:06:05;;;;;;;24.63;18.47;;;11.60;79.50;;;;;;5045815;28;20124;-67
2022/03/03 12:08:41;;;;;;;24.70;17.67;;;11.80;79.40;;;;;;5036874;28;20060;-67
2022/03/03 12:11:11;;;;;;;27.08;17.58;;;11.80;78.40;;;;;;5048477;28;20053;-67
2022/03/03 12:13:40;;;;;;;27.55;18.85;;;11.70;77.70;;;;;;5050613;28;20090;-66
2022/03/03 12:16:28;;;;;;;26.05;17.65;;;12.00;75.80;;;;;;5037048;28;20651;-66
2022/03/03 12:18:56;;;;;;;25.05;18.70;;;11.90;74.70;;;;;;5013041;28;20616;-66
2022/03/03 12:21:29;;;;;;;25.30;18.65;;;11.50;75.80;;;;;;5030655;28;20045;-66
2022/03/03 12:24:27;;;;;;;28.05;18.98;;;11.40;78.00;;;;;;5012758;28;20054;-66
2022/03/03 12:26:54;;;;;;;26.60;19.05;;;11.50;77.50;;;;;;5030580;28;20536;-66
2022/03/03 12:29:39;;;;;;;26.30;18.47;;;11.90;78.80;;;;;;5030248;28;20499;-66
2022/03/03 12:32:44;;;;;;;24.02;17.00;;;12.00;75.70;;;;;;5029096;28;20049;-67
2022/03/03 12:35:31;;;;;;;28.58;19.58;;;12.40;75.80;;;;;;5032533;28;20054;-66
2022/03/03 12:37:59;;;;;;;25.05;17.67;;;12.30;75.10;;;;;;5050276;28;20122;-66
2022/03/03 12:40:28;;;;;;;25.70;16.52;;;12.30;74.20;;;;;;5049541;28;20037;-67
2022/03/03 12:42:54;;;;;;;25.95;17.63;;;11.80;75.00;;;;;;5050196;28;20561;-67